Terminal Aerodrome Forecast
Issued by NWS Twin Cities, MN

Home | Current Version | Previous Version | Text Only | Print | Product List | Glossary Off
Versions: 1 2 3 4 5 6 7 8 9 10 11 12 13 14 15

000
FTUS43 KMPX 232321
TAFSTC
TAF
KSTC 232321Z 2400/2424 VRB05KT P6SM FEW250
     FM240600 11006KT P6SM BKN100
     FM241200 12007KT P6SM VCSH BKN050
     FM241500 13012G17KT 6SM -SHRA OVC035
     FM241800 13014G20KT 6SM -SHRA OVC025=

USA.gov is the U.S. government's official web portal to all federal, state and local government web resources and services.